Time;durP1;ratioP1;P1;durP2;ratioP2;P2;SDS_P1;SDS_P2;PMS_P1;PMS_P2;Temp;Humidity;BMP_temperature;BMP_pressure;BME280_temperature;BME280_humidity;BME280_pressure;Samples;Min_cycle;Max_cycle;Signal;HPM_P1;HPM_P2
2022/09/29 00:00:36;;;;;;;3.58;3.17;;;4.80;99.90;;;;;;5072481;28;20123;-64
2022/09/29 00:03:02;;;;;;;3.83;2.95;;;4.70;99.90;;;;;;5077889;28;20540;-63
2022/09/29 00:05:27;;;;;;;4.70;3.17;;;4.70;99.90;;;;;;5071834;28;20124;-64
2022/09/29 00:07:53;;;;;;;6.93;3.83;;;4.70;99.90;;;;;;5076912;28;20044;-64
2022/09/29 00:10:19;;;;;;;6.35;4.07;;;4.70;99.90;;;;;;5079550;28;21218;-64
2022/09/29 00:12:45;;;;;;;4.55;3.78;;;4.70;99.90;;;;;;5085547;28;20040;-64
2022/09/29 00:15:11;;;;;;;5.28;3.83;;;4.70;99.90;;;;;;5087602;28;20074;-63
2022/09/29 00:17:36;;;;;;;4.50;3.35;;;4.60;99.90;;;;;;5089107;28;20070;-64
2022/09/29 00:20:03;;;;;;;4.22;3.40;;;4.60;99.90;;;;;;5091547;28;20032;-64
2022/09/29 00:22:28;;;;;;;7.10;4.20;;;4.60;99.90;;;;;;5086139;28;20039;-64
2022/09/29 00:24:54;;;;;;;4.57;3.75;;;4.60;99.90;;;;;;5080434;28;20040;-63
2022/09/29 00:27:20;;;;;;;4.88;3.70;;;4.60;99.90;;;;;;5090390;28;20056;-63
2022/09/29 00:29:46;;;;;;;5.63;3.95;;;4.60;99.90;;;;;;5078661;28;20040;-64
2022/09/29 00:32:12;;;;;;;5.05;4.18;;;4.50;99.90;;;;;;5080611;28;20044;-63
2022/09/29 00:34:37;;;;;;;4.00;3.45;;;4.50;99.90;;;;;;5081546;28;20121;-63
2022/09/29 00:37:03;;;;;;;6.10;4.35;;;4.50;99.90;;;;;;5087110;28;20039;-64
2022/09/29 00:39:29;;;;;;;6.32;5.30;;;4.50;99.90;;;;;;5085930;28;20035;-63
2022/09/29 00:41:56;;;;;;;5.97;4.43;;;4.50;99.90;;;;;;5081381;28;20850;-64
2022/09/29 00:44:22;;;;;;;5.90;4.70;;;4.60;99.90;;;;;;5084417;28;20032;-64
2022/09/29 00:46:47;;;;;;;6.10;4.60;;;4.60;99.90;;;;;;5085161;28;20122;-64
2022/09/29 00:49:21;;;;;;;6.90;5.32;;;4.60;99.90;;;;;;5090156;28;20601;-64
2022/09/29 00:51:55;;;;;;;6.50;4.80;;;4.60;99.90;;;;;;5087235;28;20096;-64
2022/09/29 00:54:22;;;;;;;7.75;5.63;;;4.60;99.90;;;;;;5078441;28;20043;-64
2022/09/29 00:56:50;;;;;;;8.98;6.20;;;4.60;99.90;;;;;;5088135;28;20036;-64
2022/09/29 00:59:31;;;;;;;7.28;5.53;;;4.70;99.90;;;;;;5087831;28;20391;-64
2022/09/29 01:01:58;;;;;;;8.05;4.93;;;4.70;99.90;;;;;;5083052;28;20044;-64
2022/09/29 01:04:24;;;;;;;9.73;4.03;;;4.80;99.90;;;;;;5087340;28;20116;-64
2022/09/29 01:06:56;;;;;;;4.72;2.78;;;4.80;99.90;;;;;;5085216;28;20479;-64
2022/09/29 01:09:42;;;;;;;2.88;2.58;;;4.70;99.90;;;;;;5081748;28;20089;-64
2022/09/29 01:12:07;;;;;;;3.55;3.10;;;4.60;99.90;;;;;;5081314;28;20097;-64
2022/09/29 01:14:36;;;;;;;4.57;3.40;;;4.50;99.90;;;;;;5085306;28;20036;-64
2022/09/29 01:17:02;;;;;;;7.95;4.90;;;4.50;99.90;;;;;;5085562;28;20422;-63
2022/09/29 01:19:32;;;;;;;8.77;4.43;;;4.40;99.90;;;;;;5089341;28;20040;-64
2022/09/29 01:22:07;;;;;;;4.05;3.60;;;4.40;99.90;;;;;;5085646;28;20034;-64
2022/09/29 01:25:12;;;;;;;5.78;3.58;;;4.30;99.90;;;;;;5077093;28;20466;-64
2022/09/29 01:28:03;;;;;;;4.28;3.60;;;4.30;99.90;;;;;;5086044;28;20123;-64
2022/09/29 01:30:48;;;;;;;4.00;3.50;;;4.30;99.90;;;;;;5068955;28;20374;-64
2022/09/29 01:33:26;;;;;;;6.22;3.40;;;4.30;99.90;;;;;;5084145;28;20069;-64
2022/09/29 01:36:18;;;;;;;4.20;3.17;;;4.30;99.90;;;;;;5082001;28;20043;-64
2022/09/29 01:39:09;;;;;;;4.00;3.10;;;4.20;99.90;;;;;;5084749;28;20048;-64
2022/09/29 01:41:40;;;;;;;4.68;3.88;;;4.10;99.90;;;;;;5082976;28;20498;-64
2022/09/29 01:44:15;;;;;;;5.68;4.25;;;4.10;99.90;;;;;;5078798;28;20111;-64
2022/09/29 01:47:09;;;;;;;4.97;4.00;;;4.10;99.90;;;;;;5084984;28;20040;-64
2022/09/29 01:49:39;;;;;;;7.50;4.50;;;4.10;99.90;;;;;;5075944;28;20513;-64
2022/09/29 01:52:10;;;;;;;6.22;4.95;;;4.10;99.90;;;;;;5083416;28;20039;-64
2022/09/29 01:54:57;;;;;;;6.68;4.55;;;4.10;99.90;;;;;;5072375;28;20040;-64
2022/09/29 01:57:25;;;;;;;9.25;6.63;;;4.10;99.90;;;;;;5079063;28;20484;-64
2022/09/29 02:00:10;;;;;;;9.45;6.68;;;4.30;99.90;;;;;;5088541;28;20096;-64
2022/09/29 02:03:16;;;;;;;10.07;5.70;;;4.20;99.90;;;;;;5082166;28;20460;-64
2022/09/29 02:06:07;;;;;;;9.13;6.00;;;4.30;99.90;;;;;;5081351;28;20098;-64
2022/09/29 02:08:50;;;;;;;6.72;4.57;;;4.30;99.90;;;;;;5088453;28;20043;-63
2022/09/29 02:11:16;;;;;;;3.65;2.78;;;4.30;99.90;;;;;;5083361;28;20586;-64
2022/09/29 02:13:45;;;;;;;4.20;2.80;;;4.30;99.90;;;;;;5080679;28;20044;-64
2022/09/29 02:16:14;;;;;;;6.57;2.85;;;4.30;99.90;;;;;;5078233;28;20033;-64
2022/09/29 02:18:50;;;;;;;3.88;2.95;;;4.20;99.90;;;;;;5086036;28;20055;-64
2022/09/29 02:21:16;;;;;;;3.20;2.72;;;4.10;99.90;;;;;;5077859;28;20032;-65
2022/09/29 02:23:42;;;;;;;3.60;2.97;;;4.00;99.90;;;;;;5088493;28;20120;-64
2022/09/29 02:26:09;;;;;;;5.18;3.75;;;4.00;99.90;;;;;;5084609;28;20062;-64
2022/09/29 02:28:36;;;;;;;4.70;3.50;;;3.90;99.90;;;;;;5084299;28;20088;-64
2022/09/29 02:31:02;;;;;;;4.97;3.45;;;4.00;99.90;;;;;;5084330;28;20040;-64
2022/09/29 02:33:28;;;;;;;4.63;3.20;;;4.00;99.90;;;;;;5089381;28;20115;-64
2022/09/29 02:36:23;;;;;;;3.30;2.88;;;4.00;99.90;;;;;;5078762;28;20107;-64
2022/09/29 02:39:12;;;;;;;4.65;2.95;;;3.90;99.90;;;;;;5085956;28;20093;-64
2022/09/29 02:42:00;;;;;;;3.08;2.50;;;3.90;99.90;;;;;;5079406;28;20040;-64
2022/09/29 02:45:03;;;;;;;5.97;3.25;;;3.80;99.90;;;;;;5082597;28;20036;-64
2022/09/29 02:47:50;;;;;;;6.40;3.05;;;3.80;99.90;;;;;;5081273;28;20059;-65
2022/09/29 02:50:51;;;;;;;5.22;3.72;;;3.60;99.90;;;;;;5083313;28;20035;-65
2022/09/29 02:53:44;;;;;;;6.63;4.30;;;3.50;99.90;;;;;;5079246;28;20074;-64
2022/09/29 02:56:20;;;;;;;6.85;4.70;;;3.60;99.90;;;;;;5087174;28;20434;-65
2022/09/29 02:59:07;;;;;;;8.55;4.90;;;3.60;99.90;;;;;;5086706;28;20087;-64
2022/09/29 03:01:33;;;;;;;8.00;5.03;;;3.60;99.90;;;;;;5074128;28;20114;-65
2022/09/29 03:03:59;;;;;;;7.00;5.40;;;3.50;99.90;;;;;;5086545;28;20064;-64
2022/09/29 03:06:26;;;;;;;9.27;5.57;;;3.60;99.90;;;;;;5077983;28;20044;-64
2022/09/29 03:08:52;;;;;;;9.32;6.07;;;3.60;99.90;;;;;;5085391;28;20107;-65
2022/09/29 03:11:17;;;;;;;10.90;7.07;;;3.60;99.90;;;;;;5081103;28;20552;-64
2022/09/29 03:13:43;;;;;;;14.80;8.40;;;3.70;99.90;;;;;;5085077;28;20050;-64
2022/09/29 03:16:08;;;;;;;15.45;8.05;;;3.70;99.90;;;;;;5082741;28;20459;-65
2022/09/29 03:18:34;;;;;;;9.32;5.40;;;3.70;99.90;;;;;;5081188;28;20049;-63
2022/09/29 03:20:59;;;;;;;7.72;4.70;;;3.80;99.90;;;;;;5075476;28;20395;-65
2022/09/29 03:23:25;;;;;;;5.50;4.35;;;3.70;99.90;;;;;;5080208;28;20032;-64
2022/09/29 03:25:51;;;;;;;5.38;3.90;;;3.70;99.90;;;;;;5084073;28;20646;-63
2022/09/29 03:28:17;;;;;;;5.25;4.10;;;3.80;99.90;;;;;;5084323;28;20043;-64
2022/09/29 03:30:44;;;;;;;6.88;4.10;;;3.70;99.90;;;;;;5079703;28;20745;-64
2022/09/29 03:33:10;;;;;;;6.05;4.22;;;3.70;99.90;;;;;;5081518;28;20044;-65
2022/09/29 03:35:35;;;;;;;7.80;4.57;;;3.50;99.90;;;;;;5083771;28;20067;-64
2022/09/29 03:38:01;;;;;;;5.75;4.00;;;3.50;99.90;;;;;;5081010;28;20064;-64
2022/09/29 03:40:27;;;;;;;3.53;2.92;;;3.60;99.90;;;;;;5078585;28;20046;-65
2022/09/29 03:42:53;;;;;;;3.47;3.17;;;3.60;99.90;;;;;;5084431;28;20028;-64
2022/09/29 03:45:19;;;;;;;6.20;4.20;;;3.50;99.90;;;;;;5085233;28;20035;-64
2022/09/29 03:47:44;;;;;;;7.53;3.35;;;3.40;99.90;;;;;;5085160;28;20364;-64
2022/09/29 03:50:10;;;;;;;3.85;3.30;;;3.30;99.90;;;;;;5082657;28;20656;-64
2022/09/29 03:52:36;;;;;;;7.82;4.18;;;3.20;99.90;;;;;;5074682;28;20050;-64
2022/09/29 03:55:01;;;;;;;8.48;5.10;;;3.20;99.90;;;;;;5085120;28;20044;-64
2022/09/29 03:57:27;;;;;;;9.93;5.15;;;3.20;99.90;;;;;;5087502;28;20384;-64
2022/09/29 03:59:52;;;;;;;17.58;6.18;;;3.10;99.90;;;;;;5084776;28;20571;-64
2022/09/29 04:02:19;;;;;;;23.25;6.90;;;3.20;99.90;;;;;;5081059;28;20028;-64
2022/09/29 04:04:45;;;;;;;11.82;5.60;;;3.10;99.90;;;;;;5081092;28;20060;-64
2022/09/29 04:07:11;;;;;;;11.63;6.15;;;3.10;99.90;;;;;;5077667;28;20044;-64
2022/09/29 04:09:37;;;;;;;8.65;5.72;;;3.20;99.90;;;;;;5086963;28;20097;-64
2022/09/29 04:12:03;;;;;;;7.85;5.85;;;3.30;99.90;;;;;;5081890;28;20070;-64
2022/09/29 04:14:28;;;;;;;16.27;8.07;;;3.30;99.90;;;;;;5081196;28;20036;-64
2022/09/29 04:16:54;;;;;;;11.07;7.10;;;3.40;99.90;;;;;;5084426;28;20039;-64
2022/09/29 04:19:19;;;;;;;10.75;7.80;;;3.40;99.90;;;;;;5089251;28;20093;-64
2022/09/29 04:21:45;;;;;;;12.85;8.73;;;3.40;99.90;;;;;;5077683;28;20040;-65
2022/09/29 04:24:11;;;;;;;12.05;7.57;;;3.50;99.90;;;;;;5081027;28;20032;-64
2022/09/29 04:26:36;;;;;;;10.70;5.80;;;3.50;99.90;;;;;;5083151;28;20093;-65
2022/09/29 04:29:02;;;;;;;6.85;4.80;;;3.60;99.90;;;;;;5087257;28;20044;-64
2022/09/29 04:31:28;;;;;;;6.38;5.03;;;3.60;99.90;;;;;;5075534;28;20120;-64
2022/09/29 04:33:53;;;;;;;7.72;5.03;;;3.60;99.90;;;;;;5075964;28;20055;-64
2022/09/29 04:36:19;;;;;;;7.05;5.03;;;3.60;99.90;;;;;;5083923;28;20063;-64
2022/09/29 04:38:44;;;;;;;10.48;5.50;;;3.50;99.90;;;;;;5083175;28;20047;-64
2022/09/29 04:41:10;;;;;;;8.07;6.05;;;3.50;99.90;;;;;;5083965;28;20089;-65
2022/09/29 04:43:35;;;;;;;6.88;5.15;;;3.40;99.90;;;;;;5077076;28;20097;-64
2022/09/29 04:46:05;;;;;;;6.85;5.13;;;3.40;99.90;;;;;;5085960;28;20040;-64
2022/09/29 04:48:31;;;;;;;8.15;5.95;;;3.40;99.90;;;;;;5073869;28;21922;-64
2022/09/29 04:50:56;;;;;;;7.30;5.82;;;3.40;99.90;;;;;;5079780;28;20101;-64
2022/09/29 04:53:22;;;;;;;8.25;6.03;;;3.30;99.90;;;;;;5080620;28;20102;-64
2022/09/29 04:55:47;;;;;;;8.75;6.43;;;3.30;99.90;;;;;;5079493;28;20476;-64
2022/09/29 04:58:14;;;;;;;10.48;6.93;;;3.30;99.90;;;;;;5077193;28;21072;-63
2022/09/29 05:00:39;;;;;;;6.45;5.63;;;3.30;99.90;;;;;;5076835;28;20048;-64
2022/09/29 05:03:05;;;;;;;8.32;6.28;;;3.30;99.90;;;;;;5083584;28;20039;-64
2022/09/29 05:05:31;;;;;;;10.45;7.85;;;3.20;99.90;;;;;;5086578;28;20056;-64
2022/09/29 05:07:58;;;;;;;12.02;7.65;;;3.20;99.90;;;;;;5060823;28;20047;-64
2022/09/29 05:10:25;;;;;;;10.77;7.60;;;3.20;99.90;;;;;;5081853;28;20093;-64
2022/09/29 05:12:50;;;;;;;10.10;6.50;;;3.20;99.90;;;;;;5080449;28;20044;-64
2022/09/29 05:15:18;;;;;;;6.85;5.80;;;3.30;99.90;;;;;;5085123;28;20039;-64
2022/09/29 05:17:44;;;;;;;8.15;6.28;;;3.20;99.90;;;;;;5089988;28;20036;-64
2022/09/29 05:20:10;;;;;;;8.38;6.50;;;3.10;99.90;;;;;;5073155;28;20070;-65
2022/09/29 05:22:36;;;;;;;10.30;7.70;;;3.10;99.90;;;;;;5086842;28;20043;-63
2022/09/29 05:25:01;;;;;;;13.77;8.35;;;3.20;99.90;;;;;;5079417;28;20093;-64
2022/09/29 05:27:27;;;;;;;11.85;8.40;;;3.20;99.90;;;;;;5089369;28;20496;-64
2022/09/29 05:29:52;;;;;;;11.38;7.35;;;3.10;99.90;;;;;;5087135;28;20043;-64
2022/09/29 05:32:18;;;;;;;9.93;7.30;;;3.10;99.90;;;;;;5083246;28;20047;-64
2022/09/29 05:34:43;;;;;;;10.38;7.50;;;3.10;99.90;;;;;;5081065;28;20099;-65
2022/09/29 05:37:10;;;;;;;10.43;7.45;;;3.20;99.90;;;;;;5074479;28;20082;-63
2022/09/29 05:39:36;;;;;;;15.77;7.35;;;3.20;99.90;;;;;;5079308;28;20049;-64
2022/09/29 05:42:08;;;;;;;9.75;6.50;;;3.20;99.90;;;;;;5079204;28;20032;-63
2022/09/29 05:44:34;;;;;;;9.95;7.47;;;3.10;99.90;;;;;;5085296;28;20070;-64
2022/09/29 05:47:00;;;;;;;10.30;7.85;;;3.20;99.90;;;;;;5086483;28;20056;-64
2022/09/29 05:49:25;;;;;;;10.43;7.32;;;3.10;99.90;;;;;;5078555;28;20045;-63
2022/09/29 05:51:51;;;;;;;10.55;6.95;;;3.20;99.90;;;;;;5088292;28;20683;-64
2022/09/29 05:54:17;;;;;;;9.32;7.30;;;3.20;99.90;;;;;;5091481;28;20032;-63
2022/09/29 05:56:42;;;;;;;9.25;7.22;;;3.10;99.90;;;;;;5092253;28;20092;-64
2022/09/29 05:59:09;;;;;;;10.48;7.65;;;3.10;99.90;;;;;;5092212;28;20040;-64
2022/09/29 06:01:35;;;;;;;12.95;8.50;;;3.10;99.90;;;;;;5086819;28;20479;-63
2022/09/29 06:04:02;;;;;;;14.27;9.07;;;3.20;99.90;;;;;;5086565;28;20055;-64
2022/09/29 06:06:28;;;;;;;14.57;8.45;;;3.10;99.90;;;;;;5088290;28;20162;-64
2022/09/29 06:08:54;;;;;;;13.63;9.25;;;3.20;99.90;;;;;;5085639;28;20111;-64
2022/09/29 06:11:23;;;;;;;13.60;9.45;;;3.20;99.90;;;;;;5087278;28;20428;-63
2022/09/29 06:13:50;;;;;;;13.07;9.10;;;3.30;99.90;;;;;;5086459;28;20051;-63
2022/09/29 06:16:18;;;;;;;12.93;9.00;;;3.40;99.90;;;;;;5086367;28;20070;-64
2022/09/29 06:18:45;;;;;;;14.07;8.73;;;3.60;99.90;;;;;;5086805;28;20028;-63
2022/09/29 06:21:17;;;;;;;14.27;9.68;;;3.60;99.90;;;;;;5085792;28;20391;-64
2022/09/29 06:23:43;;;;;;;13.55;9.73;;;3.90;99.90;;;;;;5081054;28;20035;-64
2022/09/29 06:26:11;;;;;;;13.68;10.07;;;4.20;99.90;;;;;;5089231;28;20090;-63
2022/09/29 06:28:37;;;;;;;16.98;11.02;;;4.30;99.90;;;;;;5082894;28;21010;-64
2022/09/29 06:31:06;;;;;;;15.57;10.70;;;4.40;99.90;;;;;;5077873;28;20036;-63
2022/09/29 06:33:33;;;;;;;16.00;10.52;;;4.50;99.90;;;;;;5085519;28;20472;-63
2022/09/29 06:38:47;;;;;;;19.58;12.45;;;4.70;99.90;;;;;;5077955;28;20063;-63
2022/09/29 06:41:12;;;;;;;18.77;12.15;;;4.90;99.90;;;;;;5082433;28;20127;-64
2022/09/29 06:43:38;;;;;;;19.25;13.70;;;5.10;99.90;;;;;;5090358;28;20036;-64
2022/09/29 06:46:04;;;;;;;22.08;13.63;;;5.30;99.90;;;;;;5087052;28;20031;-64
2022/09/29 06:48:29;;;;;;;26.73;16.25;;;5.70;99.90;;;;;;5089642;28;20040;-64
2022/09/29 06:50:55;;;;;;;22.98;15.98;;;6.00;99.90;;;;;;5089158;28;20372;-64
2022/09/29 06:53:21;;;;;;;21.45;14.40;;;6.40;99.90;;;;;;5092452;28;20119;-64
2022/09/29 06:55:55;;;;;;;20.98;14.60;;;6.60;99.90;;;;;;5090382;28;20505;-64
2022/09/29 06:58:22;;;;;;;17.95;12.25;;;7.00;99.90;;;;;;5084604;28;20036;-64
2022/09/29 07:00:47;;;;;;;15.43;12.00;;;7.20;99.90;;;;;;5092710;28;20089;-64
2022/09/29 07:03:13;;;;;;;15.30;11.82;;;7.40;99.90;;;;;;5085744;28;20391;-64
2022/09/29 07:05:38;;;;;;;14.52;12.10;;;7.70;99.90;;;;;;5087314;28;20059;-64
2022/09/29 07:08:04;;;;;;;17.20;13.35;;;7.90;99.90;;;;;;5088113;28;20454;-64
2022/09/29 07:10:30;;;;;;;14.98;12.23;;;8.20;99.90;;;;;;5083275;28;20604;-63
2022/09/29 07:12:55;;;;;;;14.23;10.90;;;8.40;99.90;;;;;;5089383;28;20037;-64
2022/09/29 07:15:21;;;;;;;17.42;12.60;;;8.50;99.90;;;;;;5087822;28;20051;-64
2022/09/29 07:17:50;;;;;;;15.93;12.15;;;8.60;99.90;;;;;;5086235;28;20518;-64
2022/09/29 07:20:16;;;;;;;15.40;10.98;;;8.80;99.90;;;;;;5086461;28;20044;-64
2022/09/29 07:22:46;;;;;;;17.35;12.82;;;8.70;99.90;;;;;;5085431;28;20036;-64
2022/09/29 07:25:11;;;;;;;15.85;11.45;;;8.60;99.90;;;;;;5083447;28;20028;-64
2022/09/29 07:27:37;;;;;;;15.18;11.57;;;8.60;99.90;;;;;;5090284;28;20135;-64
2022/09/29 07:30:03;;;;;;;17.95;11.98;;;8.60;99.90;;;;;;5090513;28;20051;-64
2022/09/29 07:32:31;;;;;;;15.82;12.43;;;8.60;99.90;;;;;;5090274;28;20054;-64
2022/09/29 07:34:58;;;;;;;15.85;11.38;;;8.60;99.90;;;;;;5091534;28;20044;-64
2022/09/29 07:37:24;;;;;;;18.98;12.95;;;8.40;99.90;;;;;;5088544;28;20121;-64
2022/09/29 07:39:50;;;;;;;18.50;12.57;;;8.40;99.90;;;;;;5090031;28;20063;-64
2022/09/29 07:42:17;;;;;;;17.80;12.75;;;8.40;99.90;;;;;;5088940;28;20032;-64
2022/09/29 07:44:42;;;;;;;14.98;11.32;;;8.40;99.90;;;;;;5089836;28;20085;-64
2022/09/29 07:47:08;;;;;;;17.65;12.50;;;8.60;99.90;;;;;;5089076;28;20379;-64
2022/09/29 07:49:34;;;;;;;17.63;12.38;;;8.60;99.90;;;;;;5089567;28;20028;-64
2022/09/29 07:51:59;;;;;;;18.13;11.52;;;8.50;99.90;;;;;;5090271;28;20036;-64
2022/09/29 07:54:25;;;;;;;17.40;12.05;;;8.60;99.90;;;;;;5090022;28;20532;-64
2022/09/29 07:56:50;;;;;;;18.80;12.25;;;8.50;99.90;;;;;;5088437;28;20487;-64
2022/09/29 07:59:16;;;;;;;22.45;13.48;;;8.50;99.90;;;;;;5087177;28;20454;-64
2022/09/29 08:01:42;;;;;;;19.60;12.75;;;8.50;99.90;;;;;;5087153;28;20467;-64
2022/09/29 08:04:08;;;;;;;19.05;13.10;;;8.70;99.90;;;;;;5090724;28;20048;-64
2022/09/29 08:06:33;;;;;;;18.15;13.07;;;8.70;99.90;;;;;;5087514;28;20836;-63
2022/09/29 08:09:01;;;;;;;21.75;13.02;;;8.70;99.90;;;;;;5086919;28;20738;-63
2022/09/29 08:11:27;;;;;;;17.23;12.18;;;8.80;99.90;;;;;;5090566;28;20040;-63
2022/09/29 08:13:53;;;;;;;17.75;12.93;;;8.90;99.90;;;;;;5090471;28;20070;-64
2022/09/29 08:16:19;;;;;;;15.68;11.18;;;9.00;99.90;;;;;;5086656;28;20067;-63
2022/09/29 08:18:44;;;;;;;19.17;11.43;;;9.00;99.90;;;;;;5089911;28;20040;-63
2022/09/29 08:21:13;;;;;;;18.13;13.15;;;9.10;99.90;;;;;;5090931;28;20433;-64
2022/09/29 08:23:40;;;;;;;15.88;11.45;;;9.10;99.90;;;;;;5088911;28;20395;-64
2022/09/29 08:26:08;;;;;;;20.65;12.30;;;9.30;99.90;;;;;;5087887;28;20594;-63
2022/09/29 08:28:35;;;;;;;19.55;11.55;;;9.40;99.90;;;;;;5089020;28;20040;-63
2022/09/29 08:31:09;;;;;;;15.40;10.93;;;9.30;99.90;;;;;;5091110;28;20426;-63
2022/09/29 08:33:35;;;;;;;18.00;11.85;;;9.30;99.90;;;;;;5090039;28;20048;-64
2022/09/29 08:36:13;;;;;;;19.60;12.75;;;9.40;99.90;;;;;;5090714;28;20040;-63
2022/09/29 08:38:49;;;;;;;15.90;10.93;;;9.60;99.90;;;;;;5091541;28;20090;-63
2022/09/29 08:41:33;;;;;;;15.05;11.55;;;9.90;99.90;;;;;;5092784;28;20391;-63
2022/09/29 08:44:25;;;;;;;17.75;11.25;;;10.00;99.90;;;;;;5092872;28;20398;-62
2022/09/29 08:46:56;;;;;;;19.63;11.75;;;10.10;99.90;;;;;;5093114;28;20043;-62
2022/09/29 08:49:28;;;;;;;16.02;10.43;;;10.20;99.90;;;;;;5093657;28;20039;-64
2022/09/29 08:51:57;;;;;;;14.50;10.45;;;10.30;99.90;;;;;;5078280;28;20119;-64
2022/09/29 08:54:30;;;;;;;15.60;10.80;;;10.20;99.90;;;;;;5090066;28;20044;-62
2022/09/29 08:56:57;;;;;;;15.10;10.88;;;10.30;99.90;;;;;;5094843;28;20040;-63
2022/09/29 08:59:24;;;;;;;15.32;10.43;;;10.40;99.90;;;;;;5094007;28;20048;-63
2022/09/29 09:02:04;;;;;;;16.25;11.77;;;10.40;99.90;;;;;;5092429;28;20043;-63
2022/09/29 09:05:07;;;;;;;13.95;10.10;;;10.50;99.90;;;;;;5090054;28;20055;-63
2022/09/29 09:07:44;;;;;;;15.63;10.43;;;10.60;99.90;;;;;;5103326;28;20032;-62
2022/09/29 09:10:10;;;;;;;11.57;9.05;;;10.60;99.90;;;;;;5090338;28;20364;-61
2022/09/29 09:13:06;;;;;;;15.90;9.23;;;10.70;99.90;;;;;;5093955;28;20055;-63
2022/09/29 09:15:58;;;;;;;11.68;8.85;;;10.80;99.90;;;;;;5079171;28;20048;-63
2022/09/29 09:19:00;;;;;;;11.10;8.45;;;11.00;99.90;;;;;;5091548;28;20052;-62
2022/09/29 09:21:42;;;;;;;13.32;9.27;;;11.00;99.90;;;;;;5092441;28;20128;-62
2022/09/29 09:24:33;;;;;;;11.82;8.35;;;11.30;99.90;;;;;;5089508;28;20044;-63
2022/09/29 09:26:58;;;;;;;11.73;7.78;;;11.20;99.90;;;;;;5085647;28;20056;-61
2022/09/29 09:29:39;;;;;;;11.73;7.88;;;11.40;99.90;;;;;;5084934;28;20367;-62
2022/09/29 09:32:16;;;;;;;11.10;8.18;;;11.40;99.90;;;;;;5090471;28;20163;-62
2022/09/29 09:34:46;;;;;;;14.13;7.82;;;11.30;99.90;;;;;;5092690;28;20040;-62
2022/09/29 09:37:19;;;;;;;15.38;7.35;;;11.30;99.90;;;;;;5091511;28;20068;-63
2022/09/29 09:39:47;;;;;;;9.30;6.80;;;11.40;99.90;;;;;;5093398;28;20047;-62
2022/09/29 09:42:18;;;;;;;7.45;6.00;;;11.40;99.90;;;;;;5090687;28;20044;-61
2022/09/29 09:45:13;;;;;;;8.23;6.20;;;11.60;99.90;;;;;;5093065;28;20379;-62
2022/09/29 09:48:07;;;;;;;7.13;5.47;;;11.50;99.90;;;;;;5091077;28;20387;-61
2022/09/29 09:50:38;;;;;;;8.40;6.00;;;11.60;99.90;;;;;;5087202;28;20584;-62
2022/09/29 09:53:11;;;;;;;8.77;6.80;;;11.70;99.90;;;;;;5090768;28;20379;-62
2022/09/29 09:55:36;;;;;;;8.15;5.80;;;11.80;99.90;;;;;;5090093;28;20407;-62
2022/09/29 09:58:27;;;;;;;8.35;5.75;;;11.80;99.90;;;;;;5092202;28;20044;-61
2022/09/29 10:01:01;;;;;;;7.38;5.88;;;11.90;99.90;;;;;;5089757;28;20048;-61
2022/09/29 10:03:28;;;;;;;6.65;5.18;;;12.10;99.90;;;;;;5093022;28;20506;-62
2022/09/29 10:05:54;;;;;;;6.40;5.00;;;12.20;99.90;;;;;;5092031;28;20044;-62
2022/09/29 10:08:30;;;;;;;6.55;4.88;;;12.40;99.90;;;;;;5090774;28;20031;-62
2022/09/29 10:10:57;;;;;;;7.30;5.75;;;12.40;99.90;;;;;;5089530;28;20044;-62
2022/09/29 10:13:28;;;;;;;6.30;4.75;;;12.60;99.90;;;;;;5089947;28;20054;-61
2022/09/29 10:15:56;;;;;;;8.38;4.68;;;12.60;99.90;;;;;;5090579;28;20040;-62
2022/09/29 10:18:40;;;;;;;6.38;4.47;;;12.70;99.90;;;;;;5092458;28;20094;-61
2022/09/29 10:21:34;;;;;;;5.63;3.90;;;12.60;99.90;;;;;;5092662;28;20037;-61
2022/09/29 10:24:00;;;;;;;5.68;4.07;;;12.80;99.90;;;;;;5090762;28;20119;-60
2022/09/29 10:26:26;;;;;;;5.05;3.50;;;12.90;99.90;;;;;;5090476;28;20157;-60
2022/09/29 10:29:22;;;;;;;5.72;3.92;;;12.80;99.90;;;;;;5090128;28;20040;-60
2022/09/29 10:31:59;;;;;;;4.63;3.05;;;12.80;99.90;;;;;;5091179;28;20036;-62
2022/09/29 10:34:25;;;;;;;3.58;2.30;;;12.90;99.90;;;;;;5089291;28;20051;-62
2022/09/29 10:37:03;;;;;;;3.92;2.72;;;13.00;99.90;;;;;;5084844;28;20040;-61
2022/09/29 10:39:39;;;;;;;5.45;2.60;;;13.10;99.90;;;;;;5089752;28;20101;-63
2022/09/29 10:42:23;;;;;;;4.22;3.15;;;13.10;99.90;;;;;;5074210;28;20044;-62
2022/09/29 10:45:11;;;;;;;4.72;2.97;;;13.10;99.90;;;;;;5087481;28;20055;-61
2022/09/29 10:47:37;;;;;;;3.67;3.30;;;13.30;99.90;;;;;;5072110;28;20476;-62
2022/09/29 10:50:22;;;;;;;5.97;3.30;;;13.30;99.90;;;;;;5085710;28;20049;-60
2022/09/29 10:52:56;;;;;;;4.60;3.03;;;13.50;99.90;;;;;;5078431;28;20139;-60
2022/09/29 10:55:32;;;;;;;3.78;2.80;;;13.60;99.90;;;;;;5082433;28;20055;-61
2022/09/29 10:58:06;;;;;;;3.85;3.10;;;13.60;99.90;;;;;;5079420;28;20130;-62
2022/09/29 11:00:38;;;;;;;4.28;2.90;;;13.60;99.90;;;;;;5092167;28;20047;-63
2022/09/29 11:03:06;;;;;;;2.92;2.60;;;13.50;99.90;;;;;;5090939;28;20421;-63
2022/09/29 11:05:32;;;;;;;3.30;2.60;;;13.60;99.90;;;;;;5087522;28;20521;-63
2022/09/29 11:07:58;;;;;;;5.18;2.78;;;13.70;99.90;;;;;;5087432;28;20400;-62
2022/09/29 11:10:36;;;;;;;3.67;2.58;;;13.70;99.90;;;;;;5087551;28;20047;-62
2022/09/29 11:13:23;;;;;;;4.35;2.90;;;13.80;99.90;;;;;;5089322;28;20035;-62
2022/09/29 11:15:49;;;;;;;3.63;2.35;;;13.90;99.90;;;;;;5086548;28;20036;-60
2022/09/29 11:18:25;;;;;;;5.43;2.58;;;13.90;99.90;;;;;;5090978;28;20040;-63
2022/09/29 11:21:25;;;;;;;4.57;2.53;;;13.90;99.90;;;;;;5088926;28;20580;-62
2022/09/29 11:24:15;;;;;;;3.40;2.22;;;13.90;99.90;;;;;;5088380;28;20040;-63
2022/09/29 11:26:58;;;;;;;3.92;2.05;;;13.90;99.90;;;;;;5088690;28;20513;-62
2022/09/29 11:30:00;;;;;;;4.78;2.70;;;13.80;99.90;;;;;;5090840;28;20047;-62
2022/09/29 11:32:56;;;;;;;3.60;2.60;;;14.00;99.90;;;;;;5103255;28;20441;-62
2022/09/29 11:35:28;;;;;;;3.60;2.22;;;14.00;99.90;;;;;;5085003;28;20075;-62
2022/09/29 11:38:15;;;;;;;2.00;1.80;;;14.10;99.90;;;;;;5073216;28;20412;-62
2022/09/29 11:40:56;;;;;;;3.10;1.98;;;14.00;99.90;;;;;;5080280;28;20047;-62
2022/09/29 11:43:29;;;;;;;;;;;14.00;99.90;;;;;;5089092;28;20076;-62
2022/09/29 11:46:26;;;;;;;2.10;1.90;;;13.90;99.90;;;;;;5089914;28;20275;-62
2022/09/29 11:49:14;;;;;;;3.40;3.10;;;13.90;99.90;;;;;;5088587;28;20048;-63
2022/09/29 11:51:59;;;;;;;6.38;3.30;;;13.80;99.90;;;;;;5091280;28;20121;-62
2022/09/29 11:54:47;;;;;;;3.00;2.17;;;13.80;99.90;;;;;;5088935;28;20115;-64
2022/09/29 11:57:39;;;;;;;2.03;1.55;;;13.70;99.90;;;;;;5079725;28;20043;-62
2022/09/29 12:00:11;;;;;;;2.35;1.35;;;13.80;99.90;;;;;;5085508;28;20036;-62
2022/09/29 12:03:10;;;;;;;2.03;1.00;;;13.80;99.90;;;;;;5091481;28;20036;-62
2022/09/29 12:06:18;;;;;;;1.92;1.23;;;13.80;99.90;;;;;;5088801;28;20056;-62
2022/09/29 12:08:43;;;;;;;2.92;1.10;;;14.00;99.90;;;;;;5090395;28;20127;-63
2022/09/29 12:11:38;;;;;;;1.65;1.30;;;14.10;99.90;;;;;;5091355;28;20554;-62
2022/09/29 12:14:17;;;;;;;1.75;1.27;;;14.30;99.90;;;;;;5087435;28;20037;-62
2022/09/29 12:16:56;;;;;;;4.22;2.95;;;14.50;99.90;;;;;;5090225;28;20475;-62
2022/09/29 12:19:27;;;;;;;2.33;1.65;;;14.60;99.90;;;;;;5084972;28;20141;-62
2022/09/29 12:21:55;;;;;;;2.58;1.35;;;14.60;99.90;;;;;;5088492;28;22371;-63
2022/09/29 12:24:40;;;;;;;2.88;1.23;;;14.60;99.90;;;;;;5090568;28;20047;-62
2022/09/29 12:27:25;;;;;;;1.20;1.00;;;14.60;99.90;;;;;;5083604;28;20464;-61
2022/09/29 12:30:05;;;;;;;1.63;1.20;;;14.50;99.90;;;;;;5092089;28;20086;-62
2022/09/29 12:32:48;;;;;;;1.00;0.80;;;14.40;99.90;;;;;;5089372;28;20405;-63
2022/09/29 12:35:19;;;;;;;2.05;0.77;;;14.50;99.90;;;;;;5089958;28;20047;-62
2022/09/29 12:37:58;;;;;;;2.30;0.75;;;14.60;99.90;;;;;;5090617;28;20040;-61
2022/09/29 12:40:32;;;;;;;1.02;0.93;;;14.80;99.90;;;;;;5089970;28;20076;-63
2022/09/29 12:43:10;;;;;;;1.45;0.80;;;14.90;99.90;;;;;;5104888;28;20405;-62
2022/09/29 12:46:01;;;;;;;1.92;1.08;;;15.10;99.90;;;;;;5091979;28;20527;-62
2022/09/29 12:48:37;;;;;;;1.00;0.65;;;15.40;99.90;;;;;;5089010;28;20040;-61
2022/09/29 12:51:19;;;;;;;1.95;1.20;;;15.50;99.90;;;;;;5090559;28;20124;-63
2022/09/29 12:54:06;;;;;;;1.67;0.98;;;15.70;99.90;;;;;;5083770;28;20076;-63
2022/09/29 12:56:39;;;;;;;1.00;0.60;;;16.00;99.90;;;;;;5091139;28;20044;-62
2022/09/29 12:59:18;;;;;;;3.10;0.93;;;16.10;99.90;;;;;;5089804;28;20075;-62
2022/09/29 13:01:49;;;;;;;1.40;1.00;;;15.90;99.90;;;;;;5089754;28;20032;-62
2022/09/29 13:04:28;;;;;;;2.35;0.90;;;15.60;99.90;;;;;;5090753;28;20099;-62
2022/09/29 13:07:13;;;;;;;3.15;0.90;;;15.80;99.90;;;;;;5090387;28;20399;-63
2022/09/29 13:09:47;;;;;;;1.02;0.68;;;15.90;99.90;;;;;;5087143;28;20507;-61
2022/09/29 13:12:34;;;;;;;2.35;0.85;;;15.70;99.90;;;;;;5091222;28;20040;-62
2022/09/29 13:15:37;;;;;;;1.77;0.70;;;15.70;99.90;;;;;;5091744;28;20036;-62
2022/09/29 13:18:34;;;;;;;2.28;0.90;;;15.60;99.90;;;;;;5088499;28;20467;-62